Time;durP1;ratioP1;P1;durP2;ratioP2;P2;SDS_P1;SDS_P2;PMS_P1;PMS_P2;Temp;Humidity;BMP_temperature;BMP_pressure;BME280_temperature;BME280_humidity;BME280_pressure;Samples;Min_cycle;Max_cycle;Signal;HPM_P1;HPM_P2
2023/06/12 00:01:50;;;;;;;4.63;2.40;;;27.80;33.40;;;;;;5042798;28;20411;-64
2023/06/12 00:04:16;;;;;;;2.83;2.20;;;27.80;33.40;;;;;;5041539;28;20051;-66
2023/06/12 00:06:42;;;;;;;3.00;2.20;;;27.80;33.30;;;;;;5021918;28;20101;-65
2023/06/12 00:09:08;;;;;;;2.42;1.98;;;27.80;33.30;;;;;;5040175;28;20373;-68
2023/06/12 00:11:34;;;;;;;2.13;1.80;;;27.80;33.30;;;;;;5044141;28;20028;-64
2023/06/12 00:13:59;;;;;;;2.33;1.95;;;27.80;33.30;;;;;;5003312;28;20048;-63
2023/06/12 00:16:26;;;;;;;2.45;1.90;;;27.80;33.30;;;;;;5039626;28;20105;-65
2023/06/12 00:18:52;;;;;;;2.67;2.15;;;27.80;33.40;;;;;;5040452;28;20242;-64
2023/06/12 00:21:23;;;;;;;3.05;2.28;;;27.80;33.30;;;;;;5044353;28;20362;-64
2023/06/12 00:23:49;;;;;;;2.58;2.00;;;27.70;33.30;;;;;;5038855;28;20104;-64
2023/06/12 00:26:15;;;;;;;2.45;2.10;;;27.70;33.20;;;;;;5041442;28;20036;-64
2023/06/12 00:28:43;;;;;;;3.67;2.00;;;27.70;33.20;;;;;;5041909;28;20210;-65
2023/06/12 00:31:09;;;;;;;2.20;1.92;;;27.70;33.20;;;;;;5024790;28;20345;-62
2023/06/12 00:33:36;;;;;;;3.88;2.05;;;27.70;33.30;;;;;;5039484;28;20036;-63
2023/06/12 00:36:03;;;;;;;2.42;2.03;;;27.70;33.20;;;;;;5036920;28;20295;-64
2023/06/12 00:38:28;;;;;;;2.72;2.13;;;27.70;33.20;;;;;;5026436;28;20341;-64
2023/06/12 00:40:56;;;;;;;2.78;2.20;;;27.70;33.30;;;;;;5040320;28;20116;-64
2023/06/12 00:43:22;;;;;;;2.30;2.10;;;27.70;33.20;;;;;;5022308;28;20139;-62
2023/06/12 00:45:48;;;;;;;1.95;1.75;;;27.60;33.20;;;;;;5038841;28;20064;-63
2023/06/12 00:48:14;;;;;;;2.92;1.73;;;27.60;33.20;;;;;;5035537;28;20022;-62
2023/06/12 00:50:41;;;;;;;2.50;2.13;;;27.60;33.20;;;;;;5040513;28;20048;-66
2023/06/12 00:53:07;;;;;;;2.15;1.80;;;27.70;33.30;;;;;;5025220;28;20405;-64
2023/06/12 00:55:33;;;;;;;2.50;2.00;;;27.60;33.20;;;;;;5044475;28;20036;-65
2023/06/12 00:58:01;;;;;;;2.10;1.75;;;27.60;33.20;;;;;;5024212;28;20025;-63
2023/06/12 01:00:27;;;;;;;3.40;2.08;;;27.60;33.20;;;;;;5038153;28;20148;-65
2023/06/12 01:02:56;;;;;;;2.05;1.60;;;27.60;33.30;;;;;;5010705;28;20492;-63
2023/06/12 01:05:32;;;;;;;2.20;2.00;;;27.60;33.20;;;;;;5024360;28;20025;-62
2023/06/12 01:08:21;;;;;;;2.47;2.10;;;27.60;33.30;;;;;;5016743;28;20037;-65
2023/06/12 01:11:07;;;;;;;1.90;1.65;;;27.60;33.20;;;;;;5024874;28;20131;-64
2023/06/12 01:13:33;;;;;;;1.98;1.77;;;27.60;33.30;;;;;;5019243;28;20235;-63
2023/06/12 01:16:02;;;;;;;2.45;2.00;;;27.50;33.20;;;;;;5039114;28;20101;-61
2023/06/12 01:18:29;;;;;;;2.80;2.17;;;27.50;33.80;;;;;;5014900;28;20037;-64
2023/06/12 01:20:58;;;;;;;2.22;1.90;;;27.50;33.20;;;;;;5024363;28;20404;-63
2023/06/12 01:23:31;;;;;;;1.98;1.77;;;27.50;33.20;;;;;;5032065;28;20029;-64
2023/06/12 01:26:27;;;;;;;3.15;1.77;;;27.50;33.20;;;;;;5035403;28;20031;-62
2023/06/12 01:29:06;;;;;;;2.67;2.13;;;27.50;33.20;;;;;;5016286;28;20040;-66
2023/06/12 01:31:43;;;;;;;3.50;2.10;;;27.50;33.30;;;;;;5019978;28;20433;-65
2023/06/12 01:34:20;;;;;;;2.42;1.95;;;27.50;33.30;;;;;;5017785;28;20031;-62
2023/06/12 01:37:05;;;;;;;1.85;1.58;;;27.50;33.30;;;;;;5004957;28;20066;-66
2023/06/12 01:39:38;;;;;;;2.58;1.88;;;27.50;33.30;;;;;;5022437;28;20068;-66
2023/06/12 01:42:07;;;;;;;3.95;2.08;;;27.50;33.30;;;;;;5021657;28;20028;-66
2023/06/12 01:44:33;;;;;;;2.50;1.90;;;27.50;33.30;;;;;;5020235;28;20116;-64
2023/06/12 01:47:01;;;;;;;2.42;1.85;;;27.50;33.40;;;;;;5016232;28;20037;-61
2023/06/12 01:49:27;;;;;;;2.65;1.90;;;27.40;33.30;;;;;;5024452;28;20083;-67
2023/06/12 01:51:52;;;;;;;2.63;2.13;;;27.40;33.30;;;;;;5041559;28;20419;-67
2023/06/12 01:54:22;;;;;;;2.80;1.77;;;27.40;33.30;;;;;;5017910;28;20036;-63
2023/06/12 01:56:49;;;;;;;2.40;2.20;;;27.40;33.30;;;;;;5017988;28;20417;-65
2023/06/12 01:59:15;;;;;;;2.60;2.03;;;27.40;33.30;;;;;;5011977;28;20025;-67
2023/06/12 02:01:45;;;;;;;1.65;1.55;;;27.40;33.30;;;;;;5016586;28;20025;-66
2023/06/12 02:04:12;;;;;;;2.95;2.20;;;27.40;33.30;;;;;;5038183;28;20379;-65
2023/06/12 02:06:38;;;;;;;2.03;1.73;;;27.40;33.30;;;;;;5020105;28;20343;-65
2023/06/12 02:09:04;;;;;;;2.80;1.83;;;27.40;33.30;;;;;;5024126;28;20021;-62
2023/06/12 02:11:31;;;;;;;2.53;1.90;;;27.40;33.30;;;;;;5028217;28;20718;-64
2023/06/12 02:13:57;;;;;;;1.75;1.65;;;27.40;33.30;;;;;;5020072;28;20120;-63
2023/06/12 02:16:23;;;;;;;2.33;1.77;;;27.40;33.30;;;;;;5007596;28;20137;-68
2023/06/12 02:18:51;;;;;;;1.80;1.65;;;27.40;33.30;;;;;;5020793;28;20021;-64
2023/06/12 02:21:17;;;;;;;2.30;1.67;;;27.30;33.20;;;;;;5026715;28;20021;-67
2023/06/12 02:23:43;;;;;;;2.47;2.28;;;27.30;33.20;;;;;;5025907;28;20577;-67
2023/06/12 02:26:09;;;;;;;2.95;1.80;;;27.30;33.20;;;;;;5022278;28;20037;-64
2023/06/12 02:28:35;;;;;;;2.53;2.17;;;27.30;33.20;;;;;;5042031;28;20068;-64
2023/06/12 02:31:03;;;;;;;2.92;2.05;;;27.30;33.20;;;;;;5016964;28;20062;-65
2023/06/12 02:33:32;;;;;;;2.10;1.75;;;27.30;33.20;;;;;;5023603;28;20025;-67
2023/06/12 02:35:58;;;;;;;2.38;1.80;;;27.30;33.20;;;;;;5044225;28;20321;-64
2023/06/12 02:38:26;;;;;;;2.60;1.75;;;27.20;33.10;;;;;;5017982;28;20021;-65
2023/06/12 02:40:52;;;;;;;2.47;1.90;;;27.30;33.20;;;;;;5006560;28;20353;-63
2023/06/12 02:43:18;;;;;;;2.13;1.77;;;27.20;33.10;;;;;;5025192;28;20089;-66
2023/06/12 02:45:44;;;;;;;3.03;1.83;;;27.20;33.10;;;;;;5026191;28;20397;-67
2023/06/12 02:48:10;;;;;;;3.83;1.90;;;27.20;33.10;;;;;;5025648;28;20028;-64
2023/06/12 02:50:38;;;;;;;2.55;1.80;;;27.20;33.10;;;;;;5023058;28;20109;-70
2023/06/12 02:53:05;;;;;;;3.17;1.90;;;27.20;33.10;;;;;;5025862;28;20025;-65
2023/06/12 02:55:31;;;;;;;2.03;1.83;;;27.20;33.10;;;;;;5041199;28;20147;-68
2023/06/12 02:57:58;;;;;;;2.10;1.80;;;27.20;33.10;;;;;;5021126;28;20025;-65
2023/06/12 03:00:24;;;;;;;2.28;1.90;;;27.20;33.10;;;;;;5040186;28;20333;-64
2023/06/12 03:02:55;;;;;;;1.65;1.52;;;27.20;33.20;;;;;;5025001;28;20409;-64
2023/06/12 03:05:25;;;;;;;2.33;2.08;;;27.20;33.20;;;;;;5041074;28;20025;-63
2023/06/12 03:07:54;;;;;;;1.98;1.77;;;27.20;33.20;;;;;;5022817;28;20122;-63
2023/06/12 03:10:20;;;;;;;2.30;2.00;;;27.20;33.20;;;;;;5045822;28;20044;-66
2023/06/12 03:12:46;;;;;;;2.88;2.28;;;27.10;33.10;;;;;;5040511;28;20104;-62
2023/06/12 03:15:14;;;;;;;1.88;1.70;;;27.10;33.10;;;;;;5027606;28;20384;-65
2023/06/12 03:17:41;;;;;;;2.53;2.20;;;27.10;33.10;;;;;;5021027;28;20108;-63
2023/06/12 03:20:08;;;;;;;2.28;1.95;;;27.10;33.10;;;;;;5021534;28;21580;-67
2023/06/12 03:22:34;;;;;;;1.83;1.70;;;27.10;33.10;;;;;;5042700;28;20104;-67
2023/06/12 03:25:01;;;;;;;2.88;2.20;;;27.10;33.00;;;;;;5021643;28;20086;-63
2023/06/12 03:27:29;;;;;;;2.00;1.77;;;27.10;33.00;;;;;;5005982;28;20445;-64
2023/06/12 03:29:57;;;;;;;3.38;2.20;;;27.10;33.00;;;;;;5020945;28;20025;-64
2023/06/12 03:32:23;;;;;;;3.30;2.00;;;27.10;33.00;;;;;;5023825;28;20082;-65
2023/06/12 03:34:54;;;;;;;2.33;1.98;;;27.10;33.00;;;;;;5022769;28;20032;-65
2023/06/12 03:37:20;;;;;;;2.45;2.00;;;27.10;33.00;;;;;;5023855;28;20087;-64
2023/06/12 03:39:46;;;;;;;2.15;1.90;;;27.10;33.00;;;;;;5042889;28;20056;-63
2023/06/12 03:42:12;;;;;;;2.55;1.83;;;27.10;33.00;;;;;;5016909;28;20033;-63
2023/06/12 03:44:48;;;;;;;2.65;1.88;;;27.10;33.20;;;;;;5025873;28;20040;-66
2023/06/12 03:47:14;;;;;;;3.47;2.33;;;27.00;32.90;;;;;;5042928;28;20041;-64
2023/06/12 03:49:42;;;;;;;2.78;2.10;;;27.00;32.90;;;;;;5024250;28;20024;-66
2023/06/12 03:52:09;;;;;;;2.63;2.03;;;27.00;32.90;;;;;;5019771;28;20033;-68
2023/06/12 03:54:35;;;;;;;2.30;1.88;;;27.00;32.90;;;;;;5021954;28;20028;-63
2023/06/12 03:57:01;;;;;;;3.33;1.90;;;27.00;32.90;;;;;;5042943;28;20439;-66
2023/06/12 03:59:28;;;;;;;2.33;1.80;;;27.00;32.90;;;;;;5023396;28;20056;-64
2023/06/12 04:01:56;;;;;;;2.22;1.77;;;27.00;32.90;;;;;;5039204;28;20091;-63
2023/06/12 04:04:22;;;;;;;3.45;2.17;;;27.00;32.90;;;;;;5015892;28;20040;-62
2023/06/12 04:06:50;;;;;;;2.92;2.00;;;27.00;32.90;;;;;;5019047;28;20051;-64
2023/06/12 04:09:17;;;;;;;2.30;2.10;;;27.00;32.90;;;;;;5021414;28;20063;-65
2023/06/12 04:11:43;;;;;;;2.33;2.08;;;27.00;32.90;;;;;;5005246;28;20102;-63
2023/06/12 04:14:09;;;;;;;3.08;1.92;;;27.00;32.90;;;;;;5023888;28;20056;-63
2023/06/12 04:16:35;;;;;;;2.05;1.65;;;27.00;32.90;;;;;;5015981;28;20036;-63
2023/06/12 04:19:03;;;;;;;2.97;2.28;;;27.00;32.90;;;;;;5020453;28;20032;-63
2023/06/12 04:21:32;;;;;;;3.13;2.28;;;27.00;32.90;;;;;;5024790;28;20094;-66
2023/06/12 04:24:00;;;;;;;2.40;1.98;;;27.00;32.90;;;;;;5024490;28;20055;-64
2023/06/12 04:26:27;;;;;;;2.15;1.85;;;27.00;32.90;;;;;;5021356;28;20029;-66
2023/06/12 04:28:57;;;;;;;3.17;2.20;;;27.00;32.90;;;;;;5020501;28;20084;-62
2023/06/12 04:31:26;;;;;;;2.00;1.80;;;27.00;33.00;;;;;;5038269;28;20413;-65
2023/06/12 04:33:54;;;;;;;2.80;2.30;;;27.00;32.90;;;;;;5025037;28;20060;-67
2023/06/12 04:36:22;;;;;;;2.55;2.08;;;26.90;32.90;;;;;;5022696;28;20108;-66
2023/06/12 04:38:52;;;;;;;2.97;2.10;;;26.90;32.90;;;;;;5022035;28;20136;-63
2023/06/12 04:41:27;;;;;;;2.15;1.95;;;26.90;32.90;;;;;;5016302;28;20846;-63
2023/06/12 04:43:58;;;;;;;3.95;2.00;;;26.90;32.90;;;;;;5006323;28;20049;-63
2023/06/12 04:46:28;;;;;;;2.67;1.70;;;26.90;32.90;;;;;;4996589;28;20409;-65
2023/06/12 04:48:55;;;;;;;2.38;1.88;;;26.90;32.90;;;;;;4983756;28;20441;-66
2023/06/12 04:51:23;;;;;;;2.28;2.00;;;26.90;33.00;;;;;;5001131;28;20090;-64
2023/06/12 04:53:49;;;;;;;3.33;2.20;;;26.90;33.00;;;;;;4978322;28;20472;-63
2023/06/12 04:56:20;;;;;;;3.00;2.25;;;26.90;33.00;;;;;;4995441;28;20098;-66
2023/06/12 04:58:46;;;;;;;4.82;2.15;;;26.90;33.00;;;;;;5001463;28;20314;-63
2023/06/12 05:01:14;;;;;;;2.85;2.03;;;26.90;33.00;;;;;;4999996;28;20025;-65
2023/06/12 05:03:41;;;;;;;2.55;2.13;;;26.90;33.10;;;;;;5013147;28;20091;-65
2023/06/12 05:06:07;;;;;;;4.03;2.22;;;26.90;33.10;;;;;;5000111;28;20419;-64
2023/06/12 05:08:36;;;;;;;3.47;2.28;;;26.90;33.10;;;;;;4997305;28;20136;-67
2023/06/12 05:11:03;;;;;;;3.33;2.15;;;26.90;33.10;;;;;;4979374;28;20077;-62
2023/06/12 05:13:30;;;;;;;3.08;2.22;;;26.90;33.10;;;;;;5000585;28;20099;-62
2023/06/12 05:15:57;;;;;;;2.30;2.05;;;26.90;33.10;;;;;;5002599;28;20076;-64
2023/06/12 05:18:23;;;;;;;2.88;2.30;;;26.90;33.20;;;;;;4995603;28;20029;-63
2023/06/12 05:20:49;;;;;;;4.35;2.65;;;26.90;33.20;;;;;;4999749;28;20040;-64
2023/06/12 05:23:15;;;;;;;3.92;2.53;;;26.90;33.20;;;;;;5000552;28;20117;-65
2023/06/12 05:25:42;;;;;;;3.00;2.30;;;26.90;33.20;;;;;;5000074;28;20057;-63
2023/06/12 05:28:08;;;;;;;2.97;2.08;;;26.90;33.30;;;;;;5000609;28;20117;-65
2023/06/12 05:30:35;;;;;;;2.78;2.40;;;26.90;33.30;;;;;;5000045;28;20152;-65
2023/06/12 05:33:03;;;;;;;3.17;2.53;;;26.80;33.30;;;;;;4997267;28;20113;-66
2023/06/12 05:35:31;;;;;;;3.35;2.28;;;26.80;33.30;;;;;;5002455;28;20129;-65
2023/06/12 05:37:57;;;;;;;3.22;2.55;;;26.90;33.40;;;;;;5000305;28;20029;-65
2023/06/12 05:40:23;;;;;;;5.22;2.70;;;26.80;33.40;;;;;;5001829;28;20445;-65
2023/06/12 05:42:50;;;;;;;3.22;2.17;;;26.80;33.40;;;;;;5015543;28;20068;-64
2023/06/12 05:45:16;;;;;;;2.75;2.20;;;26.80;33.40;;;;;;5028908;28;20032;-62
2023/06/12 05:47:42;;;;;;;3.25;2.58;;;26.90;33.50;;;;;;5047175;28;20348;-66
2023/06/12 05:50:08;;;;;;;3.72;2.60;;;26.80;33.40;;;;;;5028614;28;20380;-66
2023/06/12 05:52:35;;;;;;;3.83;2.28;;;26.80;33.50;;;;;;5010868;28;20151;-63
2023/06/12 05:55:02;;;;;;;4.63;2.42;;;26.80;33.50;;;;;;5027992;28;20112;-66
2023/06/12 05:57:28;;;;;;;3.58;2.38;;;26.80;33.50;;;;;;5027673;28;20033;-67
2023/06/12 05:59:54;;;;;;;3.55;2.65;;;26.80;33.50;;;;;;5026512;28;20501;-66
2023/06/12 06:02:20;;;;;;;2.97;2.35;;;26.80;33.50;;;;;;5025887;28;21086;-64
2023/06/12 06:04:47;;;;;;;4.10;2.40;;;26.80;33.50;;;;;;5045956;28;20025;-65
2023/06/12 06:07:12;;;;;;;4.22;2.40;;;26.80;33.50;;;;;;5025336;28;20356;-64
2023/06/12 06:09:38;;;;;;;2.90;2.53;;;26.80;33.50;;;;;;5026993;28;20025;-63
2023/06/12 06:12:05;;;;;;;4.97;2.60;;;26.80;33.50;;;;;;5027328;28;20028;-63
2023/06/12 06:14:32;;;;;;;4.50;2.38;;;26.80;33.50;;;;;;5025591;28;20055;-65
2023/06/12 06:16:58;;;;;;;2.60;2.22;;;26.80;33.50;;;;;;5043389;28;20091;-63
2023/06/12 06:19:27;;;;;;;4.38;2.50;;;26.80;33.50;;;;;;5026560;28;20021;-65
2023/06/12 06:21:54;;;;;;;4.28;2.60;;;26.80;33.40;;;;;;5026946;28;20116;-67
2023/06/12 06:24:20;;;;;;;3.95;2.53;;;26.80;34.10;;;;;;5026326;28;20021;-64
2023/06/12 06:26:46;;;;;;;2.80;2.40;;;26.80;33.50;;;;;;5042083;28;20424;-69
2023/06/12 06:29:13;;;;;;;3.20;2.55;;;26.80;33.50;;;;;;5047215;28;20415;-67
2023/06/12 06:31:39;;;;;;;3.63;2.78;;;26.80;33.60;;;;;;5022756;28;20096;-65
2023/06/12 06:34:06;;;;;;;6.50;2.92;;;26.80;33.60;;;;;;5019568;28;20037;-63
2023/06/12 06:36:32;;;;;;;4.35;2.97;;;26.80;33.70;;;;;;5023992;28;20025;-63
2023/06/12 06:38:58;;;;;;;3.83;2.45;;;26.80;33.80;;;;;;5028173;28;20024;-65
2023/06/12 06:41:26;;;;;;;4.57;3.33;;;26.80;33.90;;;;;;5015014;28;20417;-63
2023/06/12 06:43:53;;;;;;;5.65;3.15;;;26.80;33.90;;;;;;5021167;28;20072;-66
2023/06/12 06:46:19;;;;;;;5.43;3.20;;;26.80;34.00;;;;;;5005579;28;20078;-64
2023/06/12 06:48:46;;;;;;;5.38;3.00;;;26.80;34.00;;;;;;5023431;28;20109;-63
2023/06/12 06:51:13;;;;;;;4.45;3.13;;;26.80;34.10;;;;;;5021505;28;20037;-67
2023/06/12 06:53:39;;;;;;;4.65;3.20;;;26.80;34.10;;;;;;5024090;28;20052;-64
2023/06/12 06:56:06;;;;;;;5.30;3.00;;;26.80;34.10;;;;;;5018507;28;20487;-67
2023/06/12 06:58:32;;;;;;;4.57;3.15;;;26.90;34.10;;;;;;5025087;28;20083;-66
2023/06/12 07:00:58;;;;;;;5.95;3.38;;;26.80;34.10;;;;;;5043096;28;20029;-67
2023/06/12 07:03:24;;;;;;;5.75;2.90;;;26.90;34.20;;;;;;5023583;28;20379;-65
2023/06/12 07:05:50;;;;;;;4.50;2.80;;;26.90;34.20;;;;;;5022049;28;20070;-65
2023/06/12 07:08:17;;;;;;;4.50;3.03;;;26.90;34.30;;;;;;5021109;28;20048;-67
2023/06/12 07:10:43;;;;;;;3.65;2.58;;;26.80;34.20;;;;;;5020300;28;20428;-65
2023/06/12 07:13:12;;;;;;;4.70;2.80;;;26.90;34.40;;;;;;5017074;28;20103;-65
2023/06/12 07:15:44;;;;;;;3.78;2.80;;;26.90;34.40;;;;;;5018167;28;20374;-66
2023/06/12 07:18:11;;;;;;;4.65;2.75;;;26.90;34.50;;;;;;5023343;28;20032;-62
2023/06/12 07:20:37;;;;;;;3.15;2.70;;;26.90;34.50;;;;;;5017273;28;20357;-65
2023/06/12 07:23:04;;;;;;;5.40;2.70;;;26.90;34.60;;;;;;5024249;28;20024;-65
2023/06/12 07:25:30;;;;;;;3.60;2.58;;;26.90;34.70;;;;;;5019108;28;20042;-62
2023/06/12 07:27:57;;;;;;;4.95;2.60;;;26.90;34.70;;;;;;5027586;28;20067;-64
2023/06/12 07:30:24;;;;;;;4.68;2.85;;;26.90;34.80;;;;;;5022050;28;20091;-65
2023/06/12 07:32:49;;;;;;;4.43;2.97;;;26.90;34.90;;;;;;5024405;28;20041;-63
2023/06/12 07:35:16;;;;;;;4.03;2.92;;;26.90;34.90;;;;;;5025747;28;20021;-66
2023/06/12 07:37:43;;;;;;;5.82;2.92;;;26.90;35.00;;;;;;5018781;28;20073;-64
2023/06/12 07:40:10;;;;;;;3.03;2.53;;;26.90;35.10;;;;;;5020516;28;20022;-64
2023/06/12 07:42:36;;;;;;;3.78;3.00;;;26.90;35.10;;;;;;5018188;28;20061;-62
2023/06/12 07:45:03;;;;;;;4.45;2.75;;;26.90;35.10;;;;;;5011660;28;20128;-65
2023/06/12 07:47:29;;;;;;;3.70;2.85;;;26.90;35.20;;;;;;5026889;28;20124;-70
2023/06/12 07:49:55;;;;;;;4.78;2.97;;;26.90;35.20;;;;;;5042044;28;20159;-64
2023/06/12 07:52:22;;;;;;;3.05;2.53;;;26.90;35.30;;;;;;5023520;28;20033;-66
2023/06/12 07:54:50;;;;;;;3.55;2.70;;;26.90;35.40;;;;;;5026238;28;20301;-66
2023/06/12 07:57:16;;;;;;;3.92;3.05;;;27.00;35.60;;;;;;5022752;28;20080;-65
2023/06/12 07:59:44;;;;;;;4.60;2.90;;;26.90;35.50;;;;;;5026036;28;20164;-63
2023/06/12 08:02:10;;;;;;;3.63;3.08;;;26.90;35.60;;;;;;5022514;28;20036;-67
2023/06/12 08:04:40;;;;;;;4.57;2.90;;;26.90;35.60;;;;;;5017253;28;20029;-66
2023/06/12 08:07:13;;;;;;;4.22;3.00;;;27.00;35.80;;;;;;5018962;28;20053;-63
2023/06/12 08:09:40;;;;;;;3.78;2.90;;;27.00;35.90;;;;;;5021064;28;20433;-63
2023/06/12 08:12:10;;;;;;;3.80;3.10;;;27.00;36.00;;;;;;5024592;28;20036;-63
2023/06/12 08:14:38;;;;;;;5.35;3.28;;;27.00;36.00;;;;;;5027728;28;20028;-65
2023/06/12 08:17:04;;;;;;;4.15;2.90;;;27.00;36.10;;;;;;5016602;28;20336;-64
2023/06/12 08:19:32;;;;;;;3.30;2.90;;;27.00;36.10;;;;;;5020904;28;20406;-65
2023/06/12 08:21:59;;;;;;;3.28;2.92;;;27.00;36.10;;;;;;5024546;28;20101;-63
2023/06/12 08:24:30;;;;;;;3.17;2.75;;;27.00;36.10;;;;;;5028705;28;20037;-65
2023/06/12 08:26:58;;;;;;;5.13;2.88;;;27.10;36.20;;;;;;5020196;28;20556;-68
2023/06/12 08:29:25;;;;;;;3.45;3.15;;;27.10;36.20;;;;;;5032204;28;20032;-68
2023/06/12 08:31:51;;;;;;;3.53;2.88;;;27.10;36.10;;;;;;5017115;28;20369;-64
2023/06/12 08:34:17;;;;;;;4.25;3.13;;;27.10;36.10;;;;;;5026398;28;20029;-68
2023/06/12 08:36:44;;;;;;;3.97;2.63;;;27.10;36.10;;;;;;5031341;28;20037;-68
2023/06/12 08:39:11;;;;;;;3.63;2.80;;;27.10;36.20;;;;;;5021383;28;20059;-67
2023/06/12 08:41:49;;;;;;;4.50;3.40;;;27.10;36.30;;;;;;5028538;28;20449;-69
2023/06/12 08:44:16;;;;;;;3.42;2.80;;;27.20;36.40;;;;;;5029254;28;20381;-68
2023/06/12 08:46:44;;;;;;;3.42;3.03;;;27.20;36.30;;;;;;5028714;28;20037;-70
2023/06/12 08:49:12;;;;;;;3.53;2.92;;;27.30;36.30;;;;;;5017478;28;20068;-67
2023/06/12 08:51:39;;;;;;;3.92;2.92;;;27.40;36.20;;;;;;5013718;28;20040;-68
2023/06/12 08:54:06;;;;;;;3.00;2.60;;;27.50;36.20;;;;;;5029386;28;20098;-65
2023/06/12 08:56:33;;;;;;;3.50;2.90;;;27.60;36.00;;;;;;5032139;28;20029;-71
2023/06/12 08:59:00;;;;;;;5.22;3.10;;;27.70;36.00;;;;;;5051853;28;20429;-67
2023/06/12 09:01:28;;;;;;;3.13;2.50;;;27.80;35.90;;;;;;5045104;28;20030;-62
2023/06/12 09:04:00;;;;;;;3.35;3.03;;;27.90;35.80;;;;;;5022632;28;20034;-64
2023/06/12 09:06:28;;;;;;;2.83;2.53;;;28.00;35.80;;;;;;5037407;28;20360;-66
2023/06/12 09:08:54;;;;;;;3.38;2.83;;;28.00;35.60;;;;;;5036412;28;20507;-64
2023/06/12 09:11:19;;;;;;;3.53;2.58;;;28.10;35.60;;;;;;5032901;28;20136;-62
2023/06/12 09:13:49;;;;;;;3.60;2.60;;;28.20;35.50;;;;;;5033235;28;20147;-64
2023/06/12 09:16:15;;;;;;;3.13;2.60;;;28.20;35.40;;;;;;5049378;28;20094;-64
2023/06/12 09:18:52;;;;;;;3.45;2.92;;;28.30;35.40;;;;;;5035056;28;20025;-64
2023/06/12 09:21:20;;;;;;;3.33;2.72;;;28.20;35.20;;;;;;5013182;28;20033;-64
2023/06/12 09:23:50;;;;;;;2.95;2.50;;;28.30;35.30;;;;;;5031667;28;20037;-65
2023/06/12 09:26:18;;;;;;;3.42;2.90;;;28.30;35.20;;;;;;5037108;28;20029;-67
2023/06/12 09:28:44;;;;;;;3.08;2.78;;;28.20;35.10;;;;;;5032680;28;20021;-68
2023/06/12 09:31:14;;;;;;;2.83;2.40;;;28.20;35.10;;;;;;5032828;28;20057;-64
2023/06/12 09:33:40;;;;;;;3.17;2.88;;;28.20;35.00;;;;;;5050925;28;20104;-63
2023/06/12 09:36:10;;;;;;;3.38;2.85;;;28.20;35.00;;;;;;5033092;28;20029;-64
2023/06/12 09:38:36;;;;;;;2.53;2.33;;;28.20;34.90;;;;;;5043155;28;20101;-62
2023/06/12 09:41:03;;;;;;;3.65;2.95;;;28.10;34.80;;;;;;5015944;28;20021;-63
2023/06/12 09:43:30;;;;;;;3.50;2.65;;;28.10;34.80;;;;;;5032158;28;20076;-65
2023/06/12 09:45:59;;;;;;;3.67;2.67;;;28.10;34.80;;;;;;5051045;28;20029;-67
2023/06/12 09:48:54;;;;;;;3.30;2.50;;;28.10;34.80;;;;;;5050117;28;20071;-64
2023/06/12 09:51:21;;;;;;;2.97;2.67;;;28.10;34.70;;;;;;5045147;28;20089;-64
2023/06/12 09:53:49;;;;;;;3.85;2.80;;;28.00;34.70;;;;;;5049429;28;20037;-66
2023/06/12 09:56:16;;;;;;;3.42;2.80;;;28.00;34.70;;;;;;5032208;28;20033;-69
2023/06/12 09:58:47;;;;;;;2.58;2.38;;;28.00;34.70;;;;;;5050066;28;20027;-61
2023/06/12 10:01:15;;;;;;;2.60;2.30;;;28.00;34.60;;;;;;5030367;28;20092;-68
2023/06/12 10:03:44;;;;;;;3.20;2.50;;;27.90;34.50;;;;;;5032099;28;20033;-65
2023/06/12 10:06:13;;;;;;;3.45;2.70;;;28.00;35.20;;;;;;5030547;28;20045;-65
2023/06/12 10:08:40;;;;;;;3.70;2.40;;;28.00;34.60;;;;;;5045295;28;20052;-66
2023/06/12 10:11:10;;;;;;;2.58;2.38;;;27.90;34.60;;;;;;5032364;28;20065;-63
2023/06/12 10:13:37;;;;;;;4.72;2.60;;;27.90;34.60;;;;;;5049065;28;20305;-66
2023/06/12 10:16:04;;;;;;;2.47;2.28;;;27.90;34.50;;;;;;5050232;28;20413;-65
2023/06/12 10:18:31;;;;;;;2.58;2.38;;;27.90;34.30;;;;;;5047966;28;20029;-64
2023/06/12 10:21:00;;;;;;;2.90;2.20;;;27.90;34.30;;;;;;5050188;28;20105;-68
2023/06/12 10:23:26;;;;;;;3.10;2.30;;;27.90;34.50;;;;;;5050417;28;20211;-62
2023/06/12 10:25:53;;;;;;;2.88;2.40;;;27.90;34.60;;;;;;5010535;28;20373;-65
2023/06/12 10:28:19;;;;;;;2.53;2.33;;;27.90;34.50;;;;;;5031165;28;20139;-62
2023/06/12 10:31:11;;;;;;;3.15;2.42;;;27.90;34.40;;;;;;5047048;28;20096;-65
2023/06/12 10:33:37;;;;;;;2.55;2.33;;;27.90;34.20;;;;;;5053343;28;20329;-65
2023/06/12 10:36:11;;;;;;;2.10;1.95;;;27.90;34.20;;;;;;5053473;28;20036;-64
2023/06/12 10:38:44;;;;;;;2.92;2.42;;;27.90;34.30;;;;;;5053784;28;20118;-67
2023/06/12 10:41:10;;;;;;;2.72;2.50;;;27.90;34.30;;;;;;5044980;28;20065;-66
2023/06/12 10:43:39;;;;;;;3.92;2.22;;;27.80;34.20;;;;;;5040615;28;20149;-65
2023/06/12 10:46:12;;;;;;;2.47;2.28;;;27.80;34.10;;;;;;5039038;28;20034;-63
2023/06/12 10:48:47;;;;;;;2.60;2.40;;;27.80;34.20;;;;;;5044165;28;20052;-66
2023/06/12 10:51:13;;;;;;;2.67;2.42;;;27.80;34.00;;;;;;5045560;28;20116;-65
2023/06/12 10:53:45;;;;;;;2.67;2.45;;;27.80;34.10;;;;;;5044519;28;20222;-66
2023/06/12 10:56:11;;;;;;;2.58;2.25;;;27.80;34.30;;;;;;5047043;28;20021;-65
2023/06/12 10:58:41;;;;;;;3.28;2.53;;;27.80;34.40;;;;;;5046801;28;20307;-67
2023/06/12 11:01:10;;;;;;;2.30;2.10;;;27.80;34.40;;;;;;5043154;28;20060;-67
2023/06/12 11:03:39;;;;;;;2.45;2.08;;;27.80;34.40;;;;;;5042628;28;20040;-65
2023/06/12 11:06:12;;;;;;;2.72;2.40;;;27.80;34.10;;;;;;5026031;28;20148;-66
2023/06/12 11:08:42;;;;;;;2.78;2.20;;;27.80;34.20;;;;;;5027962;28;20057;-66
2023/06/12 11:11:12;;;;;;;2.88;2.40;;;27.80;34.30;;;;;;5033577;28;20117;-64
2023/06/12 11:13:40;;;;;;;2.72;2.10;;;27.80;34.20;;;;;;5028760;28;20064;-65
2023/06/12 11:16:06;;;;;;;2.28;2.03;;;27.90;34.30;;;;;;5042272;28;20094;-67
2023/06/12 11:18:32;;;;;;;2.67;2.33;;;27.90;34.40;;;;;;5039071;28;20030;-65
2023/06/12 11:20:58;;;;;;;2.20;2.00;;;27.90;34.50;;;;;;5043705;28;20044;-63
2023/06/12 11:23:28;;;;;;;2.40;2.15;;;27.90;34.40;;;;;;5039574;28;20017;-67
2023/06/12 11:25:57;;;;;;;2.40;2.20;;;27.90;34.40;;;;;;5046800;28;20318;-65
2023/06/12 11:28:24;;;;;;;2.30;2.10;;;27.90;35.00;;;;;;5042286;28;20113;-67
2023/06/12 11:30:51;;;;;;;2.78;2.42;;;27.90;34.30;;;;;;5024776;28;20039;-65
2023/06/12 11:33:17;;;;;;;2.90;2.58;;;27.90;34.30;;;;;;5045609;28;20088;-62
2023/06/12 11:35:45;;;;;;;3.58;2.70;;;27.90;34.30;;;;;;5047507;28;20028;-64
2023/06/12 11:38:21;;;;;;;2.47;2.03;;;27.90;34.30;;;;;;5043743;28;20301;-68
2023/06/12 11:40:50;;;;;;;2.47;2.20;;;27.90;34.30;;;;;;5036366;28;20025;-62
2023/06/12 11:43:21;;;;;;;2.85;2.33;;;27.90;34.30;;;;;;5047389;28;20051;-65
2023/06/12 11:45:48;;;;;;;3.50;2.50;;;27.90;34.20;;;;;;5052137;28;20074;-64
2023/06/12 11:48:16;;;;;;;2.03;1.80;;;27.90;34.50;;;;;;5050619;28;20048;-64
2023/06/12 11:50:47;;;;;;;2.60;2.33;;;27.90;34.60;;;;;;5051756;28;20044;-64
2023/06/12 11:53:14;;;;;;;2.38;2.15;;;27.90;34.70;;;;;;5043594;28;20052;-66
2023/06/12 11:55:41;;;;;;;2.58;2.35;;;27.90;34.80;;;;;;5050222;28;20118;-65
2023/06/12 11:58:07;;;;;;;3.25;2.33;;;27.90;34.90;;;;;;5033994;28;20483;-67
2023/06/12 12:00:34;;;;;;;2.42;2.20;;;27.90;34.90;;;;;;5045715;28;20048;-64
2023/06/12 12:03:04;;;;;;;2.88;2.28;;;27.90;34.90;;;;;;5032294;28;20465;-64
2023/06/12 12:05:35;;;;;;;3.33;2.38;;;27.90;34.90;;;;;;5031826;28;20536;-67
2023/06/12 12:08:03;;;;;;;2.38;2.08;;;27.90;34.90;;;;;;5043775;28;20041;-66
2023/06/12 12:10:33;;;;;;;2.40;2.20;;;28.00;35.00;;;;;;5044622;28;20092;-65
2023/06/12 12:13:03;;;;;;;2.65;2.15;;;28.00;35.00;;;;;;5039931;28;20120;-64
2023/06/12 12:15:31;;;;;;;2.60;2.15;;;27.90;34.90;;;;;;5025033;28;20361;-64
2023/06/12 12:17:58;;;;;;;2.53;2.33;;;28.00;35.00;;;;;;5027849;28;20025;-65
2023/06/12 12:20:26;;;;;;;2.50;2.20;;;28.00;35.00;;;;;;5032854;28;20089;-67
2023/06/12 12:23:02;;;;;;;2.85;2.13;;;28.00;35.10;;;;;;5051162;28;20341;-65
2023/06/12 12:25:30;;;;;;;2.13;1.92;;;28.00;35.20;;;;;;5051414;28;20158;-62
2023/06/12 12:27:59;;;;;;;2.20;2.00;;;28.00;35.20;;;;;;5051065;28;20036;-63
2023/06/12 12:30:26;;;;;;;2.22;2.00;;;28.00;35.20;;;;;;5050223;28;20130;-65
2023/06/12 12:32:54;;;;;;;3.78;2.63;;;28.00;35.20;;;;;;5033194;28;20408;-64
2023/06/12 12:35:21;;;;;;;2.72;2.20;;;28.00;35.10;;;;;;5051081;28;20203;-64
2023/06/12 12:37:49;;;;;;;2.25;2.05;;;28.00;35.10;;;;;;5049910;28;20079;-63
2023/06/12 12:40:15;;;;;;;2.85;2.35;;;28.00;35.00;;;;;;5050860;28;20029;-63
2023/06/12 12:42:49;;;;;;;2.50;2.22;;;28.00;35.00;;;;;;5024370;28;20108;-67
2023/06/12 12:45:16;;;;;;;;;;;28.10;35.00;;;;;;5011760;28;20048;-66
2023/06/12 12:47:49;;;;;;;2.53;1.98;;;28.00;35.00;;;;;;5011161;28;19921;-66
2023/06/12 12:50:19;;;;;;;2.10;1.90;;;28.00;35.00;;;;;;5006213;28;20134;-63
2023/06/12 12:52:45;;;;;;;2.05;1.85;;;28.00;35.00;;;;;;5008339;28;20018;-65